createdAt,value
2019-02-28T00:00:25.388Z,67.34
2019-02-28T00:01:25.381Z,67.34
2019-02-28T00:02:25.377Z,67.25
2019-02-28T00:03:28.558Z,67.91
2019-02-28T00:04:25.111Z,68.19
2019-02-28T00:05:25.355Z,67.82
2019-02-28T00:06:25.338Z,68.01
2019-02-28T00:07:25.339Z,67.91
2019-02-28T00:08:25.328Z,68.01
2019-02-28T00:09:28.199Z,68.58
2019-02-28T00:10:25.066Z,68.39
2019-02-28T00:11:25.294Z,68.58
2019-02-28T00:12:25.057Z,68.86
2019-02-28T00:13:25.285Z,69.05
2019-02-28T00:14:27.638Z,68.01
2019-02-28T00:15:25.275Z,67.72
2019-02-28T00:16:25.010Z,67.82
2019-02-28T00:17:24.999Z,67.63
2019-02-28T00:18:25.237Z,68.67
2019-02-28T00:19:26.938Z,67.63
2019-02-28T00:20:25.233Z,67.91
2019-02-28T00:21:24.972Z,67.72
2019-02-28T00:22:25.203Z,68.29
2019-02-28T00:23:25.267Z,67.63
2019-02-28T00:24:27.102Z,68.01
2019-02-28T00:25:25.221Z,68.39
2019-02-28T00:26:24.935Z,68.29
2019-02-28T00:27:24.918Z,68.73
2019-02-28T00:28:27.911Z,68.58
2019-02-28T00:29:25.165Z,68.26
2019-02-28T00:30:24.887Z,69.02
2019-02-28T00:31:25.127Z,69.11
2019-02-28T00:32:27.243Z,69.68
2019-02-28T00:33:24.914Z,69.78
2019-02-28T00:34:25.103Z,69.96
2019-02-28T00:35:24.900Z,70.63
2019-02-28T00:36:25.096Z,70.54
2019-02-28T00:37:27.012Z,71.01
2019-02-28T00:38:29.167Z,71.48
2019-02-28T00:39:25.074Z,71.58
2019-02-28T00:40:25.067Z,71.48
2019-02-28T00:41:25.054Z,71.86
2019-02-28T00:42:24.802Z,71.77
2019-02-28T00:43:27.458Z,71.48
2019-02-28T00:44:25.293Z,71.48
2019-02-28T00:45:25.015Z,72.34
2019-02-28T00:46:25.005Z,72.53
2019-02-28T00:47:25.006Z,72.44
2019-02-28T00:48:25.002Z,73
2019-02-28T00:49:26.958Z,73.19
2019-02-28T00:50:27.572Z,73.16
2019-02-28T00:51:25.011Z,72.81
2019-02-28T00:52:24.966Z,72.81
2019-02-28T00:53:24.701Z,73
2019-02-28T00:54:24.956Z,73.29
2019-02-28T00:55:24.946Z,73.38
2019-02-28T00:56:24.926Z,73.96
2019-02-28T00:57:26.263Z,73.48
2019-02-28T00:58:28.409Z,73.76
2019-02-28T00:59:24.930Z,73.38
2019-02-28T01:00:24.902Z,73.67
2019-02-28T01:01:24.651Z,73.19
2019-02-28T01:02:24.884Z,73.48
2019-02-28T01:03:29.129Z,73.54
2019-02-28T01:04:29.821Z,73.82
2019-02-28T01:05:24.866Z,74.3
2019-02-28T01:06:24.852Z,74.49
2019-02-28T01:07:24.842Z,74.96
2019-02-28T01:08:25.201Z,75.15
2019-02-28T01:09:27.051Z,74.96
2019-02-28T01:10:24.575Z,74.68
2019-02-28T01:11:24.810Z,74.87
2019-02-28T01:12:24.560Z,75.53
2019-02-28T01:13:29.752Z,75.15
2019-02-28T01:14:24.782Z,74.9
2019-02-28T01:15:24.807Z,74.96
2019-02-28T01:16:24.771Z,74.68
2019-02-28T01:17:28.892Z,74.71
2019-02-28T01:18:24.506Z,74.15
2019-02-28T01:19:24.781Z,74.33
2019-02-28T01:20:24.735Z,73.86
2019-02-28T01:21:26.897Z,73.57
2019-02-28T01:22:26.705Z,73
2019-02-28T01:23:24.705Z,72.72
2019-02-28T01:24:24.707Z,72.81
2019-02-28T01:25:24.699Z,72.81
2019-02-28T01:26:24.683Z,72.44
2019-02-28T01:27:24.672Z,72.53
2019-02-28T01:28:29.139Z,72.34
2019-02-28T01:29:24.406Z,72.72
2019-02-28T01:30:24.642Z,72.25
2019-02-28T01:31:24.400Z,72.44
2019-02-28T01:32:24.626Z,71.77
2019-02-28T01:33:27.973Z,71.67
2019-02-28T01:34:24.366Z,71.86
2019-02-28T01:35:24.666Z,71.2
2019-02-28T01:36:24.364Z,70.92
2019-02-28T01:37:24.343Z,71.2
2019-02-28T01:38:26.541Z,71.11
2019-02-28T01:39:24.582Z,71.39
2019-02-28T01:40:24.563Z,71.39
2019-02-28T01:41:24.554Z,71.33
2019-02-28T01:42:24.542Z,70.86
2019-02-28T01:43:28.294Z,70.67
2019-02-28T01:44:24.598Z,69.81
2019-02-28T01:45:24.269Z,69.91
2019-02-28T01:46:24.516Z,70
2019-02-28T01:47:24.509Z,70.1
2019-02-28T01:48:26.044Z,70.29
2019-02-28T01:49:25.833Z,69.71
2019-02-28T01:50:24.228Z,70.1
2019-02-28T01:51:24.473Z,69.53
2019-02-28T01:52:24.465Z,69.91
2019-02-28T01:53:24.456Z,70.67
2019-02-28T01:54:25.101Z,69.71
2019-02-28T01:55:24.449Z,70.29
2019-02-28T01:56:24.436Z,69.71
2019-02-28T01:57:24.432Z,70.29
2019-02-28T01:58:24.413Z,70.1
2019-02-28T01:59:24.721Z,70.29
2019-02-28T02:00:26.824Z,69.81
2019-02-28T02:01:24.391Z,69.91
2019-02-28T02:02:24.378Z,70.29
2019-02-28T02:03:24.117Z,70.15
2019-02-28T02:04:24.353Z,71.01
2019-02-28T02:05:24.352Z,70.54
2019-02-28T02:06:27.847Z,70.06
2019-02-28T02:07:24.362Z,70.44
2019-02-28T02:08:24.106Z,70.92
2019-02-28T02:09:24.072Z,70.92
2019-02-28T02:10:24.315Z,71.01
2019-02-28T02:11:26.657Z,70.73
2019-02-28T02:12:24.121Z,71.58
2019-02-28T02:13:24.282Z,71.39
2019-02-28T02:14:24.306Z,71.48
2019-02-28T02:15:24.310Z,71.67
2019-02-28T02:16:29.022Z,71.77
2019-02-28T02:17:24.241Z,71.67
2019-02-28T02:18:23.990Z,71.86
2019-02-28T02:19:23.977Z,71.77
2019-02-28T02:20:28.005Z,72.44
2019-02-28T02:21:24.205Z,72.81
2019-02-28T02:22:24.194Z,72.34
2019-02-28T02:23:24.206Z,72.53
2019-02-28T02:24:29.963Z,72.72
2019-02-28T02:25:24.169Z,73
2019-02-28T02:26:24.160Z,73.38
2019-02-28T02:27:24.156Z,73.96
2019-02-28T02:28:29.348Z,73.48
2019-02-28T02:29:23.903Z,73.67
2019-02-28T02:30:24.140Z,73.19
2019-02-28T02:31:30.053Z,73.48
2019-02-28T02:32:24.121Z,72.91
2019-02-28T02:33:24.110Z,73.19
2019-02-28T02:34:28.151Z,73.48
2019-02-28T02:35:24.102Z,74.01
2019-02-28T02:36:24.083Z,74.3
2019-02-28T02:37:26.325Z,74.3
2019-02-28T02:38:24.059Z,74.39
2019-02-28T02:39:24.056Z,74.77
2019-02-28T02:40:25.593Z,74.68
2019-02-28T02:41:24.041Z,74.81
2019-02-28T02:42:23.775Z,74.77
2019-02-28T02:43:25.505Z,74.96
2019-02-28T02:44:30.443Z,75.15
2019-02-28T02:45:23.996Z,74.96
2019-02-28T02:46:24.009Z,75.19
2019-02-28T02:47:23.995Z,74.96
2019-02-28T02:48:23.977Z,75.67
2019-02-28T02:49:23.732Z,74.96
2019-02-28T02:50:23.962Z,75.05
2019-02-28T02:51:23.981Z,74.77
2019-02-28T02:52:30.477Z,74.87
2019-02-28T02:53:23.946Z,74.87
2019-02-28T02:54:23.922Z,75.15
2019-02-28T02:55:30.501Z,75.05
2019-02-28T02:56:23.910Z,75.53
2019-02-28T02:57:23.899Z,75.43
2019-02-28T02:58:29.351Z,76.1
2019-02-28T02:59:23.638Z,76.2
2019-02-28T03:00:23.630Z,76.29
2019-02-28T03:01:26.466Z,76.2
2019-02-28T03:02:23.620Z,75.81
2019-02-28T03:03:23.853Z,76.1
2019-02-28T03:04:25.797Z,76.01
2019-02-28T03:05:23.845Z,76.29
2019-02-28T03:06:23.579Z,76.01
2019-02-28T03:07:27.088Z,76.01
2019-02-28T03:08:23.811Z,75.91
2019-02-28T03:09:23.799Z,76.57
2019-02-28T03:10:23.537Z,75.81
2019-02-28T03:11:27.366Z,75.53
2019-02-28T03:12:23.783Z,75.62
2019-02-28T03:13:23.771Z,76.1
2019-02-28T03:14:23.759Z,76.57
2019-02-28T03:15:29.331Z,76.48
2019-02-28T03:16:23.746Z,76.01
2019-02-28T03:17:23.486Z,75.81
2019-02-28T03:18:24.056Z,76.2
2019-02-28T03:19:23.457Z,76.76
2019-02-28T03:20:23.703Z,76.76
2019-02-28T03:21:23.693Z,76.01
2019-02-28T03:22:30.744Z,75.24
2019-02-28T03:23:23.693Z,74.87
2019-02-28T03:24:23.698Z,75.24
2019-02-28T03:25:30.313Z,75.43
2019-02-28T03:26:23.649Z,75.43
2019-02-28T03:27:23.641Z,75.62
2019-02-28T03:28:23.638Z,75.81
2019-02-28T03:29:23.620Z,76.29
2019-02-28T03:30:33.004Z,75.62
2019-02-28T03:31:23.643Z,76.2
2019-02-28T03:32:23.584Z,76.01
2019-02-28T03:33:30.692Z,76.01
2019-02-28T03:34:23.348Z,76.48
2019-02-28T03:35:23.585Z,76.29
2019-02-28T03:36:23.298Z,76.29
2019-02-28T03:37:23.547Z,76.2
2019-02-28T03:38:23.547Z,76.39
2019-02-28T03:39:27.994Z,76.67
2019-02-28T03:40:23.274Z,76.57
2019-02-28T03:41:23.264Z,76.57
2019-02-28T03:42:28.477Z,77.14
2019-02-28T03:43:23.488Z,77.24
2019-02-28T03:44:24.315Z,77.52
2019-02-28T03:45:23.474Z,77.43
2019-02-28T03:46:23.454Z,77.52
2019-02-28T03:47:26.469Z,77.14
2019-02-28T03:48:23.436Z,77.24
2019-02-28T03:49:23.477Z,76.76
2019-02-28T03:50:25.405Z,76.86
2019-02-28T03:51:23.170Z,77.43
2019-02-28T03:52:23.169Z,76.86
2019-02-28T03:53:23.327Z,76.95
2019-02-28T03:54:23.132Z,77.33
2019-02-28T03:55:23.378Z,77.33
2019-02-28T03:56:23.112Z,77.33
2019-02-28T03:57:30.466Z,77.24
2019-02-28T03:58:23.345Z,77.24
2019-02-28T03:59:23.343Z,76.86
2019-02-28T04:00:23.357Z,77.14
2019-02-28T04:01:23.349Z,77.24
2019-02-28T04:02:24.806Z,76.95
2019-02-28T04:03:23.321Z,76.95
2019-02-28T04:04:23.298Z,77.24
2019-02-28T04:05:29.052Z,77.43
2019-02-28T04:06:23.324Z,77.14
2019-02-28T04:07:23.273Z,77.05
2019-02-28T04:08:29.229Z,77.14
2019-02-28T04:09:23.290Z,77.24
2019-02-28T04:10:24.908Z,77.43
2019-02-28T04:11:23.262Z,77.14
2019-02-28T04:12:23.226Z,76.57
2019-02-28T04:13:23.216Z,77.14
2019-02-28T04:14:23.208Z,77.05
2019-02-28T04:15:23.206Z,77.05
2019-02-28T04:16:23.179Z,77.14
2019-02-28T04:17:29.812Z,77.9
2019-02-28T04:18:23.213Z,77.14
2019-02-28T04:19:25.191Z,77.71
2019-02-28T04:20:23.149Z,77.9
2019-02-28T04:21:23.134Z,78
2019-02-28T04:22:25.528Z,77.71
2019-02-28T04:23:22.867Z,77.81
2019-02-28T04:24:22.860Z,78.28
2019-02-28T04:25:26.401Z,78.28
2019-02-28T04:26:23.083Z,77.81
2019-02-28T04:27:23.081Z,77.81
2019-02-28T04:28:23.072Z,77.71
2019-02-28T04:29:29.807Z,78.75
2019-02-28T04:30:23.055Z,78.47
2019-02-28T04:31:23.054Z,78.75
2019-02-28T04:32:29.086Z,78.66
2019-02-28T04:33:23.029Z,78.72
2019-02-28T04:34:23.038Z,79.23
2019-02-28T04:35:26.412Z,79.1
2019-02-28T04:36:23.002Z,79.19
2019-02-28T04:37:22.987Z,79.57
2019-02-28T04:38:23.843Z,79.76
2019-02-28T04:39:25.268Z,80.14
2019-02-28T04:40:23.990Z,79.85
2019-02-28T04:41:22.953Z,79.57
2019-02-28T04:42:22.961Z,80.14
2019-02-28T04:43:22.691Z,80.24
2019-02-28T04:44:22.719Z,80.99
2019-02-28T04:45:26.107Z,80.99
2019-02-28T04:46:22.907Z,80.52
2019-02-28T04:47:22.912Z,80.52
2019-02-28T04:48:22.877Z,80.04
2019-02-28T04:49:25.166Z,80.14
2019-02-28T04:50:22.873Z,80.43
2019-02-28T04:51:22.867Z,80.8
2019-02-28T04:52:22.848Z,80.52
2019-02-28T04:53:22.592Z,80.9
2019-02-28T04:54:24.467Z,80.8
2019-02-28T04:55:22.830Z,80.14
2019-02-28T04:56:22.855Z,80.43
2019-02-28T04:57:22.968Z,80.62
2019-02-28T04:58:25.236Z,81.09
2019-02-28T04:59:22.534Z,80.8
2019-02-28T05:00:22.530Z,80.62
2019-02-28T05:01:22.518Z,80.52
2019-02-28T05:02:22.867Z,80.43
2019-02-28T05:03:27.790Z,80.24
2019-02-28T05:04:22.734Z,80.33
2019-02-28T05:05:22.724Z,80.14
2019-02-28T05:06:24.188Z,80.14
2019-02-28T05:07:22.704Z,80.43
2019-02-28T05:08:22.710Z,80.62
2019-02-28T05:09:22.700Z,80.9
2019-02-28T05:10:25.211Z,81.18
2019-02-28T05:11:22.661Z,80.62
2019-02-28T05:12:22.411Z,80.14
2019-02-28T05:13:22.662Z,79.66
2019-02-28T05:14:25.744Z,80.33
2019-02-28T05:15:22.373Z,79.95
2019-02-28T05:16:22.619Z,80.43
2019-02-28T05:17:25.285Z,81.09
2019-02-28T05:18:22.370Z,80.43
2019-02-28T05:19:22.586Z,80.33
2019-02-28T05:20:22.337Z,80.52
2019-02-28T05:21:22.715Z,80.99
2019-02-28T05:22:24.375Z,80.62
2019-02-28T05:23:22.561Z,79.95
2019-02-28T05:24:22.290Z,80.52
2019-02-28T05:25:22.595Z,80.04
2019-02-28T05:26:23.402Z,80.04
2019-02-28T05:27:24.258Z,79.95
2019-02-28T05:28:22.257Z,80.62
2019-02-28T05:29:22.486Z,80.24
2019-02-28T05:30:22.232Z,80.9
2019-02-28T05:31:24.112Z,80.04
2019-02-28T05:32:22.455Z,80.24
2019-02-28T05:33:22.204Z,80.43
2019-02-28T05:34:22.186Z,80.24
2019-02-28T05:35:28.119Z,80.52
2019-02-28T05:36:22.448Z,80.24
2019-02-28T05:37:22.405Z,80.04
2019-02-28T05:38:24.815Z,80.14
2019-02-28T05:39:22.143Z,80.43
2019-02-28T05:40:22.388Z,80.33
2019-02-28T05:41:22.384Z,80.24
2019-02-28T05:42:25.292Z,80.33
2019-02-28T05:43:22.098Z,80.62
2019-02-28T05:44:23.820Z,80.62
2019-02-28T05:45:22.079Z,80.8
2019-02-28T05:46:25.770Z,80.24
2019-02-28T05:47:22.069Z,80.52
2019-02-28T05:48:22.065Z,80.43
2019-02-28T05:49:22.056Z,80.43
2019-02-28T05:50:22.031Z,80.33
2019-02-28T05:51:24.833Z,80.8
2019-02-28T05:52:22.024Z,81.09
2019-02-28T05:53:22.254Z,80.9
2019-02-28T05:54:22.247Z,80.62
2019-02-28T05:55:27.094Z,80.99
2019-02-28T05:56:21.989Z,80.9
2019-02-28T05:57:21.971Z,80.8
2019-02-28T05:58:23.117Z,80.99
2019-02-28T05:59:25.963Z,80.71
2019-02-28T06:00:21.945Z,81.66
2019-02-28T06:01:22.207Z,80.8
2019-02-28T06:02:25.693Z,80.8
2019-02-28T06:03:21.906Z,81.27
2019-02-28T06:04:22.179Z,81.37
2019-02-28T06:05:21.905Z,80.99
2019-02-28T06:06:23.286Z,81.09
2019-02-28T06:07:22.149Z,80.9
2019-02-28T06:08:22.129Z,80.9
2019-02-28T06:09:22.109Z,81.37
2019-02-28T06:10:26.002Z,81.56
2019-02-28T06:11:21.848Z,81.47
2019-02-28T06:12:21.830Z,81.56
2019-02-28T06:13:22.081Z,81.66
2019-02-28T06:14:26.453Z,82.23
2019-02-28T06:15:22.059Z,82.04
2019-02-28T06:16:22.043Z,82.23
2019-02-28T06:17:23.765Z,82.04
2019-02-28T06:18:21.768Z,82.04
2019-02-28T06:19:22.791Z,82.6
2019-02-28T06:20:22.005Z,82.6
2019-02-28T06:21:23.333Z,82.51
2019-02-28T06:22:21.733Z,83.17
2019-02-28T06:23:21.732Z,83.17
2019-02-28T06:24:21.967Z,83.27
2019-02-28T06:25:27.311Z,83.84
2019-02-28T06:26:21.941Z,83.55
2019-02-28T06:27:21.938Z,84.12
2019-02-28T06:28:21.921Z,83.84
2019-02-28T06:29:21.670Z,84.22
2019-02-28T06:30:21.661Z,84.12
2019-02-28T06:31:21.674Z,83.94
2019-02-28T06:32:27.309Z,84.22
2019-02-28T06:33:23.782Z,83.84
2019-02-28T06:34:21.619Z,83.55
2019-02-28T06:35:22.904Z,83.46
2019-02-28T06:36:21.880Z,83.27
2019-02-28T06:37:23.947Z,82.89
2019-02-28T06:38:22.307Z,83.17
2019-02-28T06:39:21.860Z,82.98
2019-02-28T06:40:21.808Z,83.36
2019-02-28T06:41:21.835Z,83.36
2019-02-28T06:42:21.797Z,83.08
2019-02-28T06:43:22.028Z,83.36
2019-02-28T06:44:24.166Z,83.17
2019-02-28T06:45:21.764Z,83.46
2019-02-28T06:46:21.525Z,83.17
2019-02-28T06:47:21.524Z,83.55
2019-02-28T06:48:26.758Z,83.36
2019-02-28T06:49:21.731Z,82.6
2019-02-28T06:50:21.716Z,83.17
2019-02-28T06:51:21.725Z,83.27
2019-02-28T06:52:22.237Z,82.84
2019-02-28T06:53:21.692Z,82.23
2019-02-28T06:54:21.694Z,82.36
2019-02-28T06:55:21.424Z,81.98
2019-02-28T06:56:25.019Z,82.17
2019-02-28T06:57:21.657Z,82.08
2019-02-28T06:58:21.663Z,82.17
2019-02-28T06:59:21.387Z,81.6
2019-02-28T07:00:21.643Z,81.6
2019-02-28T07:01:25.039Z,81.51
2019-02-28T07:02:21.364Z,81.51
2019-02-28T07:03:21.629Z,80.94
2019-02-28T07:04:21.615Z,81.13
2019-02-28T07:05:27.147Z,80.65
2019-02-28T07:06:21.592Z,80.37
2019-02-28T07:07:21.346Z,80.75
2019-02-28T07:08:28.947Z,80.18
2019-02-28T07:09:21.592Z,80.08
2019-02-28T07:10:21.619Z,79.42
2019-02-28T07:11:22.400Z,79.9
2019-02-28T07:12:21.543Z,79.71
2019-02-28T07:13:21.562Z,79.42
2019-02-28T07:14:21.291Z,79.17
2019-02-28T07:15:26.065Z,78.61
2019-02-28T07:16:21.501Z,78.51
2019-02-28T07:17:21.242Z,78.51
2019-02-28T07:18:22.440Z,78.61
2019-02-28T07:19:21.474Z,77.75
2019-02-28T07:20:21.215Z,77.75
2019-02-28T07:21:21.449Z,77.47
2019-02-28T07:22:22.140Z,77.84
2019-02-28T07:23:22.230Z,78.13
2019-02-28T07:24:21.431Z,77.28
2019-02-28T07:25:21.434Z,77.18
2019-02-28T07:26:22.052Z,76.8
2019-02-28T07:27:23.304Z,76.32
2019-02-28T07:28:21.161Z,76.42
2019-02-28T07:29:21.406Z,76.71
2019-02-28T07:30:21.924Z,76.42
2019-02-28T07:31:26.718Z,75.76
2019-02-28T07:32:21.125Z,76.08
2019-02-28T07:33:21.364Z,75.6
2019-02-28T07:34:24.443Z,75.23
2019-02-28T07:35:21.349Z,74.85
2019-02-28T07:36:21.339Z,74.08
2019-02-28T07:37:22.087Z,74.27
2019-02-28T07:38:21.073Z,74.03
2019-02-28T07:39:21.313Z,71.69
2019-02-28T07:40:21.306Z,69.35
2019-02-28T07:41:26.143Z,65.67
2019-02-28T07:42:21.296Z,62.56
2019-02-28T07:43:21.050Z,60.4
2019-02-28T07:44:24.665Z,58.33
2019-02-28T07:45:21.279Z,56.84
2019-02-28T07:46:21.279Z,55.21
2019-02-28T07:47:21.272Z,54
2019-02-28T07:48:26.376Z,52.86
2019-02-28T07:49:21.292Z,51.93
2019-02-28T07:50:21.308Z,51.19
2019-02-28T07:51:26.366Z,49.88
2019-02-28T07:52:22.871Z,49.02
2019-02-28T07:53:21.255Z,47.89
2019-02-28T07:54:22.955Z,45.81
2019-02-28T07:55:21.009Z,44.31
2019-02-28T07:56:21.276Z,43.92
2019-02-28T07:57:22.442Z,44.02
2019-02-28T07:58:21.284Z,43.66
2019-02-28T07:59:21.261Z,42.13
2019-02-28T08:00:21.066Z,42.9
2019-02-28T08:01:24.420Z,42.44
2019-02-28T08:02:21.290Z,41.21
2019-02-28T08:03:21.260Z,39.97
2019-02-28T08:04:21.561Z,39.31
2019-02-28T08:05:21.259Z,39.31
2019-02-28T08:06:21.259Z,39.41
2019-02-28T08:07:21.260Z,38.74
2019-02-28T08:08:23.357Z,39.03
2019-02-28T08:09:21.005Z,39.39
2019-02-28T08:10:21.010Z,39.39
2019-02-28T08:11:23.000Z,39.1
2019-02-28T08:12:21.266Z,39.48
2019-02-28T08:13:21.264Z,39.2
2019-02-28T08:14:21.272Z,39.68
2019-02-28T08:15:24.851Z,40.06
2019-02-28T08:16:21.261Z,40.14
2019-02-28T08:17:21.274Z,40.23
2019-02-28T08:18:22.025Z,40.61
2019-02-28T08:19:22.733Z,40.33
2019-02-28T08:20:22.079Z,40.23
2019-02-28T08:21:21.284Z,40.59
2019-02-28T08:22:25.823Z,41.17
2019-02-28T08:23:21.274Z,40.78
2019-02-28T08:24:21.271Z,40.98
2019-02-28T08:25:21.276Z,40.98
2019-02-28T08:26:22.141Z,41.46
2019-02-28T08:27:21.031Z,43.06
2019-02-28T08:28:21.026Z,44.29
2019-02-28T08:29:21.277Z,45.12
2019-02-28T08:30:22.034Z,47.3
2019-02-28T08:31:21.280Z,48.8
2019-02-28T08:32:21.289Z,49.93
2019-02-28T08:33:21.297Z,50.49
2019-02-28T08:34:25.844Z,51.81
2019-02-28T08:35:21.594Z,52.76
2019-02-28T08:36:21.305Z,52.95
2019-02-28T08:37:22.522Z,54.07
2019-02-28T08:38:21.050Z,54.64
2019-02-28T08:39:21.278Z,54.83
2019-02-28T08:40:21.287Z,55.69
2019-02-28T08:41:22.425Z,55.85
2019-02-28T08:42:21.019Z,55.85
2019-02-28T08:43:29.509Z,56.52
2019-02-28T08:44:25.282Z,56.62
2019-02-28T08:45:21.285Z,56.71
2019-02-28T08:46:21.277Z,57.09
2019-02-28T08:47:24.156Z,57.38
2019-02-28T08:48:21.004Z,57.67
2019-02-28T08:49:21.256Z,58.24
2019-02-28T08:50:24.035Z,58.24
2019-02-28T08:51:23.001Z,58.11
2019-02-28T08:52:21.238Z,58.33
2019-02-28T08:53:21.855Z,57.76
2019-02-28T08:54:26.037Z,57.48
2019-02-28T08:55:30.636Z,57.48
2019-02-28T08:56:21.224Z,57.76
2019-02-28T08:57:27.699Z,58.04
2019-02-28T08:58:20.975Z,57.67
2019-02-28T08:59:24.662Z,57.38
2019-02-28T09:00:20.981Z,56.9
2019-02-28T09:01:21.222Z,57.12
2019-02-28T09:02:21.209Z,56.93
2019-02-28T09:03:20.977Z,57.22
2019-02-28T09:04:21.220Z,56.55
2019-02-28T09:05:25.393Z,56.46
2019-02-28T09:06:21.194Z,55.98
2019-02-28T09:07:21.193Z,56.36
2019-02-28T09:08:22.388Z,56.74
2019-02-28T09:09:21.194Z,56.36
2019-02-28T09:10:21.175Z,56.38
2019-02-28T09:11:24.034Z,56.1
2019-02-28T09:12:21.171Z,55.43
2019-02-28T09:13:20.920Z,55.62
2019-02-28T09:14:20.951Z,55.43
2019-02-28T09:15:20.931Z,55.82
2019-02-28T09:16:21.184Z,55.91
2019-02-28T09:17:21.553Z,55.24
2019-02-28T09:18:21.154Z,55.36
2019-02-28T09:19:20.900Z,54.99
2019-02-28T09:20:21.182Z,54.99
2019-02-28T09:21:21.271Z,54.32
2019-02-28T09:22:21.136Z,54.79
2019-02-28T09:23:21.149Z,54.7
2019-02-28T09:24:21.168Z,54.03
2019-02-28T09:25:26.782Z,54.41
2019-02-28T09:26:21.128Z,54.6
2019-02-28T09:27:20.877Z,54.15
2019-02-28T09:28:21.897Z,53.96
2019-02-28T09:29:24.314Z,54.25
2019-02-28T09:30:21.125Z,54.06
2019-02-28T09:31:21.115Z,54.06
2019-02-28T09:32:21.125Z,53.58
2019-02-28T09:33:25.146Z,53.67
2019-02-28T09:34:21.109Z,53.2
2019-02-28T09:35:21.101Z,52.75
2019-02-28T09:36:23.884Z,53.22
2019-02-28T09:37:20.887Z,52.94
2019-02-28T09:38:21.100Z,53.03
2019-02-28T09:39:22.535Z,52.75
2019-02-28T09:40:21.087Z,52.36
2019-02-28T09:41:21.533Z,52.36
2019-02-28T09:42:20.836Z,52.29
2019-02-28T09:43:23.821Z,52.58
2019-02-28T09:44:21.099Z,51.72
2019-02-28T09:45:21.077Z,51.72
2019-02-28T09:46:21.016Z,52.58
2019-02-28T09:47:23.297Z,52.77
2019-02-28T09:48:21.080Z,52.51
2019-02-28T09:49:21.088Z,51.84
2019-02-28T09:50:24.377Z,51.56
2019-02-28T09:51:21.095Z,50.52
2019-02-28T09:52:22.770Z,49.48
2019-02-28T09:53:21.066Z,49.38
2019-02-28T09:54:26.491Z,49.09
2019-02-28T09:55:21.068Z,49.29
2019-02-28T09:56:21.921Z,49.48
2019-02-28T09:57:22.675Z,49.57
2019-02-28T09:58:20.823Z,49.19
2019-02-28T09:59:20.825Z,49.11
2019-02-28T10:00:20.798Z,48.54
2019-02-28T10:01:26.434Z,48.07
2019-02-28T10:02:21.051Z,48.25
2019-02-28T10:03:21.975Z,48.25
2019-02-28T10:04:20.794Z,47.99
2019-02-28T10:05:20.821Z,48.66
2019-02-28T10:06:21.055Z,48.38
2019-02-28T10:07:23.326Z,48.28
2019-02-28T10:08:21.758Z,47.42
2019-02-28T10:09:21.043Z,47.51
2019-02-28T10:10:24.153Z,47.42
2019-02-28T10:11:21.774Z,46.48
2019-02-28T10:12:21.040Z,46.86
2019-02-28T10:13:20.788Z,46.86
2019-02-28T10:14:21.060Z,45.43
2019-02-28T10:15:20.786Z,45.43
2019-02-28T10:16:21.039Z,45.33
2019-02-28T10:17:22.664Z,45.43
2019-02-28T10:18:21.039Z,45.14
2019-02-28T10:19:21.039Z,45.43
2019-02-28T10:20:26.250Z,45.62
2019-02-28T10:21:20.782Z,46.58
2019-02-28T10:22:21.043Z,48.13
2019-02-28T10:23:23.954Z,46.5
2019-02-28T10:24:21.033Z,45.93
2019-02-28T10:25:21.030Z,47.08
2019-02-28T10:26:20.788Z,47.75
2019-02-28T10:27:23.224Z,46.22
2019-02-28T10:28:21.027Z,45.28
2019-02-28T10:29:21.051Z,45.18
2019-02-28T10:30:30.696Z,44.23
2019-02-28T10:31:35.342Z,43.94
2019-02-28T10:32:20.782Z,44.13
2019-02-28T10:33:21.030Z,43.84
2019-02-28T10:34:23.399Z,43.36
2019-02-28T10:35:21.025Z,43.55
2019-02-28T10:36:21.028Z,45.09
2019-02-28T10:37:22.663Z,45.11
2019-02-28T10:38:21.038Z,46.43
2019-02-28T10:39:21.028Z,46.72
2019-02-28T10:40:20.920Z,47.61
2019-02-28T10:41:21.030Z,44.23
2019-02-28T10:42:20.788Z,44.44
2019-02-28T10:43:20.781Z,44.15
2019-02-28T10:44:21.024Z,42.43
2019-02-28T10:45:20.814Z,42.81
2019-02-28T10:46:22.652Z,42.81
2019-02-28T10:47:21.043Z,42.81
2019-02-28T10:48:20.778Z,42.23
2019-02-28T10:49:26.337Z,41.94
2019-02-28T10:50:21.030Z,41.85
2019-02-28T10:51:20.780Z,40.99
2019-02-28T10:52:23.425Z,41.37
2019-02-28T10:53:21.033Z,40.33
2019-02-28T10:54:21.034Z,40.52
2019-02-28T10:55:24.460Z,40.62
2019-02-28T10:56:20.779Z,41
2019-02-28T10:57:21.030Z,41
2019-02-28T10:58:21.038Z,40.52
2019-02-28T10:59:24.343Z,41
2019-02-28T11:00:22.570Z,41.29
2019-02-28T11:01:20.789Z,40.72
2019-02-28T11:02:22.241Z,40.33
2019-02-28T11:03:21.044Z,40.43
2019-02-28T11:04:21.035Z,40.43
2019-02-28T11:05:21.954Z,40.55
2019-02-28T11:06:20.798Z,40.83
2019-02-28T11:07:21.039Z,40.35
2019-02-28T11:08:21.699Z,41.02
2019-02-28T11:09:25.639Z,40.83
2019-02-28T11:10:20.796Z,40.55
2019-02-28T11:11:21.036Z,40.83
2019-02-28T11:12:24.086Z,40.73
2019-02-28T11:13:20.796Z,40.83
2019-02-28T11:14:21.036Z,40.83
2019-02-28T11:15:21.045Z,40.73
2019-02-28T11:16:23.548Z,40.45
2019-02-28T11:17:20.790Z,39.89
2019-02-28T11:18:20.795Z,39.79
2019-02-28T11:19:21.977Z,39.79
2019-02-28T11:20:26.067Z,40.55
2019-02-28T11:21:20.804Z,40.55
2019-02-28T11:22:20.797Z,40.56
2019-02-28T11:23:21.059Z,39.39
2019-02-28T11:24:26.995Z,39.22
2019-02-28T11:25:20.804Z,38.91
2019-02-28T11:26:21.049Z,38.45
2019-02-28T11:27:23.236Z,38.14
2019-02-28T11:28:21.053Z,38.07
2019-02-28T11:29:20.796Z,38.07
2019-02-28T11:30:20.925Z,37.68
2019-02-28T11:31:22.327Z,38.35
2019-02-28T11:32:21.050Z,38.07
2019-02-28T11:33:22.853Z,37.49
2019-02-28T11:34:21.237Z,37.12
2019-02-28T11:35:25.389Z,36.74
2019-02-28T11:36:21.058Z,36.74
2019-02-28T11:37:21.057Z,36.07
2019-02-28T11:38:24.045Z,36.45
2019-02-28T11:39:20.810Z,36.07
2019-02-28T11:40:20.809Z,36.07
2019-02-28T11:41:21.821Z,36.33
2019-02-28T11:42:21.058Z,37.1
2019-02-28T11:43:21.055Z,36.91
2019-02-28T11:44:21.063Z,36.62
2019-02-28T11:45:25.674Z,36.72
2019-02-28T11:46:20.818Z,36.64
2019-02-28T11:47:20.818Z,37.12
2019-02-28T11:48:22.773Z,36.45
2019-02-28T11:49:20.823Z,35.77
2019-02-28T11:50:21.072Z,35.87
2019-02-28T11:51:21.083Z,35.1
2019-02-28T11:52:21.087Z,35.2
2019-02-28T11:53:21.435Z,34.62
2019-02-28T11:54:21.109Z,34.35
2019-02-28T11:55:23.577Z,34.16
2019-02-28T11:56:21.088Z,33.48
2019-02-28T11:57:23.115Z,33.29
2019-02-28T11:58:20.836Z,33
2019-02-28T11:59:24.080Z,33.29
2019-02-28T12:00:20.833Z,33.2
2019-02-28T12:01:20.837Z,32.81
2019-02-28T12:02:22.822Z,33.2
2019-02-28T12:03:20.842Z,33.1
2019-02-28T12:04:21.098Z,33.1
2019-02-28T12:05:21.159Z,33.2
2019-02-28T12:06:22.323Z,33.48
2019-02-28T12:07:21.095Z,33.58
2019-02-28T12:08:22.382Z,33.48
2019-02-28T12:09:21.709Z,33.12
2019-02-28T12:10:20.911Z,32.73
2019-02-28T12:11:21.104Z,32.92
2019-02-28T12:12:21.100Z,32.82
2019-02-28T12:13:21.900Z,32.9
2019-02-28T12:14:21.109Z,32.04
2019-02-28T12:15:22.611Z,32.71
2019-02-28T12:16:22.584Z,32.43
2019-02-28T12:17:21.109Z,32.71
2019-02-28T12:18:21.110Z,32.62
2019-02-28T12:19:20.868Z,32.81
2019-02-28T12:20:25.753Z,32.14
2019-02-28T12:21:20.873Z,32.71
2019-02-28T12:22:21.122Z,32.04
2019-02-28T12:23:25.610Z,31.75
2019-02-28T12:24:20.881Z,30.79
2019-02-28T12:25:20.881Z,30.69
2019-02-28T12:26:21.274Z,31.18
2019-02-28T12:27:21.148Z,31.65
2019-02-28T12:28:21.146Z,31.75
2019-02-28T12:29:20.898Z,31.46
2019-02-28T12:30:21.896Z,31.57
2019-02-28T12:31:21.132Z,31.57
2019-02-28T12:32:21.131Z,31.67
2019-02-28T12:33:25.563Z,32.34
2019-02-28T12:34:21.148Z,32.73
2019-02-28T12:35:20.892Z,33.21
2019-02-28T12:36:21.149Z,33.02
2019-02-28T12:37:24.567Z,32.82
2019-02-28T12:38:20.910Z,32.82
2019-02-28T12:39:21.150Z,32.34
2019-02-28T12:40:21.151Z,30.52
2019-02-28T12:41:25.127Z,30.6
2019-02-28T12:42:20.912Z,30.4
2019-02-28T12:43:20.913Z,30.31
2019-02-28T12:44:20.923Z,30.02
2019-02-28T12:45:26.498Z,29.83
2019-02-28T12:46:20.918Z,30.5
2019-02-28T12:47:20.916Z,30.5
2019-02-28T12:48:21.169Z,30.88
2019-02-28T12:49:26.115Z,30.4
2019-02-28T12:50:21.166Z,30.69
2019-02-28T12:51:21.170Z,31.37
2019-02-28T12:52:20.919Z,31.65
2019-02-28T12:53:26.753Z,32.04
2019-02-28T12:54:21.186Z,31.46
2019-02-28T12:55:21.185Z,32.21